sensor_id;sensor_type;location;lat;lon;timestamp;pressure;altitude;pressure_sealevel;temperature
41654;BMP280;30790;52.030;7.110;2022-09-09T00:00:15;100085.13;;;23.18
41654;BMP280;30790;52.030;7.110;2022-09-09T00:02:55;100078.03;;;23.17
41654;BMP280;30790;52.030;7.110;2022-09-09T00:05:30;100075.00;;;23.19
41654;BMP280;30790;52.030;7.110;2022-09-09T00:07:59;100076.09;;;23.18
41654;BMP280;30790;52.030;7.110;2022-09-09T00:10:40;100071.19;;;23.15
41654;BMP280;30790;52.030;7.110;2022-09-09T00:13:20;100084.31;;;23.18
41654;BMP280;30790;52.030;7.110;2022-09-09T00:15:56;100082.41;;;23.18
41654;BMP280;30790;52.030;7.110;2022-09-09T00:18:31;100070.09;;;23.16
41654;BMP280;30790;52.030;7.110;2022-09-09T00:21:06;100058.91;;;23.07
41654;BMP280;30790;52.030;7.110;2022-09-09T00:23:38;100071.44;;;23.18
41654;BMP280;30790;52.030;7.110;2022-09-09T00:26:41;100073.38;;;23.18
41654;BMP280;30790;52.030;7.110;2022-09-09T00:29:23;100081.59;;;23.18
41654;BMP280;30790;52.030;7.110;2022-09-09T00:31:57;100072.00;;;23.15
41654;BMP280;30790;52.030;7.110;2022-09-09T00:34:26;100071.72;;;23.17
41654;BMP280;30790;52.030;7.110;2022-09-09T00:36:53;100072.84;;;23.16
41654;BMP280;30790;52.030;7.110;2022-09-09T00:39:34;100072.84;;;23.16
41654;BMP280;30790;52.030;7.110;2022-09-09T00:42:38;100063.25;;;23.13
41654;BMP280;30790;52.030;7.110;2022-09-09T00:47:53;100062.44;;;23.12
41654;BMP280;30790;52.030;7.110;2022-09-09T00:56:08;100061.88;;;23.16
41654;BMP280;30790;52.030;7.110;2022-09-09T00:58:36;100056.41;;;23.16
41654;BMP280;30790;52.030;7.110;2022-09-09T01:01:11;100052.84;;;23.15
41654;BMP280;30790;52.030;7.110;2022-09-09T01:03:43;100054.78;;;23.15
41654;BMP280;30790;52.030;7.110;2022-09-09T01:06:18;100061.06;;;23.15
41654;BMP280;30790;52.030;7.110;2022-09-09T01:09:04;100068.47;;;23.15
41654;BMP280;30790;52.030;7.110;2022-09-09T01:11:45;100061.88;;;23.16
41654;BMP280;30790;52.030;7.110;2022-09-09T01:14:30;100060.81;;;23.11
41654;BMP280;30790;52.030;7.110;2022-09-09T01:17:01;100056.97;;;23.12
41654;BMP280;30790;52.030;7.110;2022-09-09T01:22:29;100044.13;;;23.08
41654;BMP280;30790;52.030;7.110;2022-09-09T01:27:43;100054.22;;;23.12
41654;BMP280;30790;52.030;7.110;2022-09-09T01:30:15;100049.03;;;23.11
41654;BMP280;30790;52.030;7.110;2022-09-09T01:32:46;100057.78;;;23.13
41654;BMP280;30790;52.030;7.110;2022-09-09T01:35:23;100049.06;;;23.06
41654;BMP280;30790;52.030;7.110;2022-09-09T01:37:52;100054.25;;;23.07
41654;BMP280;30790;52.030;7.110;2022-09-09T01:40:18;100066.28;;;23.11
41654;BMP280;30790;52.030;7.110;2022-09-09T01:42:44;100061.91;;;23.10
41654;BMP280;30790;52.030;7.110;2022-09-09T01:45:10;100061.63;;;23.12
41654;BMP280;30790;52.030;7.110;2022-09-09T01:47:35;100054.78;;;23.09
41654;BMP280;30790;52.030;7.110;2022-09-09T01:50:01;100059.16;;;23.10
41654;BMP280;30790;52.030;7.110;2022-09-09T01:52:27;100057.53;;;23.09
41654;BMP280;30790;52.030;7.110;2022-09-09T01:54:52;100059.16;;;23.10
41654;BMP280;30790;52.030;7.110;2022-09-09T01:57:40;100060.00;;;23.11
41654;BMP280;30790;52.030;7.110;2022-09-09T02:05:41;100061.91;;;23.10
41654;BMP280;30790;52.030;7.110;2022-09-09T02:11:14;100062.19;;;23.09
41654;BMP280;30790;52.030;7.110;2022-09-09T02:13:40;100058.63;;;23.08
41654;BMP280;30790;52.030;7.110;2022-09-09T02:16:12;100049.34;;;23.04
41654;BMP280;30790;52.030;7.110;2022-09-09T02:19:00;100068.47;;;23.09
41654;BMP280;30790;52.030;7.110;2022-09-09T02:21:28;100056.19;;;23.07
41654;BMP280;30790;52.030;7.110;2022-09-09T02:23:58;100063.00;;;23.09
41654;BMP280;30790;52.030;7.110;2022-09-09T02:26:25;100064.38;;;23.07
41654;BMP280;30790;52.030;7.110;2022-09-09T02:28:54;100057.28;;;23.06
41654;BMP280;30790;52.030;7.110;2022-09-09T02:31:22;100057.03;;;23.02
41654;BMP280;30790;52.030;7.110;2022-09-09T02:33:56;100052.91;;;22.95
41654;BMP280;30790;52.030;7.110;2022-09-09T02:36:28;100068.47;;;23.09
41654;BMP280;30790;52.030;7.110;2022-09-09T02:38:54;100063.03;;;23.04
41654;BMP280;30790;52.030;7.110;2022-09-09T02:41:25;100061.13;;;23.05
41654;BMP280;30790;52.030;7.110;2022-09-09T02:43:52;100065.78;;;23.04
41654;BMP280;30790;52.030;7.110;2022-09-09T02:49:18;100060.28;;;23.04
41654;BMP280;30790;52.030;7.110;2022-09-09T02:52:06;100069.03;;;23.06
41654;BMP280;30790;52.030;7.110;2022-09-09T02:54:37;100075.06;;;23.08
41654;BMP280;30790;52.030;7.110;2022-09-09T02:57:08;100072.31;;;23.08
41654;BMP280;30790;52.030;7.110;2022-09-09T02:59:35;100072.31;;;23.08
41654;BMP280;30790;52.030;7.110;2022-09-09T03:02:01;100063.84;;;23.05
41654;BMP280;30790;52.030;7.110;2022-09-09T03:04:26;100064.13;;;23.03
41654;BMP280;30790;52.030;7.110;2022-09-09T03:06:52;100061.94;;;23.00
41654;BMP280;30790;52.030;7.110;2022-09-09T03:09:17;100069.59;;;23.03
41654;BMP280;30790;52.030;7.110;2022-09-09T03:11:42;100073.44;;;23.02
41654;BMP280;30790;52.030;7.110;2022-09-09T03:14:07;100068.78;;;23.03
41654;BMP280;30790;52.030;7.110;2022-09-09T03:16:33;100067.97;;;23.02
41654;BMP280;30790;52.030;7.110;2022-09-09T03:19:00;100057.84;;;22.93
41654;BMP280;30790;52.030;7.110;2022-09-09T03:21:25;100067.97;;;23.02
41654;BMP280;30790;52.030;7.110;2022-09-09T03:23:50;100066.06;;;23.03
41654;BMP280;30790;52.030;7.110;2022-09-09T03:26:16;100056.47;;;22.95
41654;BMP280;30790;52.030;7.110;2022-09-09T03:28:42;100065.78;;;23.04
41654;BMP280;30790;52.030;7.110;2022-09-09T03:31:07;100069.03;;;23.06
41654;BMP280;30790;52.030;7.110;2022-09-09T03:33:36;100067.41;;;23.05
41654;BMP280;30790;52.030;7.110;2022-09-09T03:36:02;100065.75;;;22.99
41654;BMP280;30790;52.030;7.110;2022-09-09T03:38:28;100061.41;;;23.03
41654;BMP280;30790;52.030;7.110;2022-09-09T03:40:56;100070.16;;;23.05
41654;BMP280;30790;52.030;7.110;2022-09-09T03:43:23;100065.78;;;23.04
41654;BMP280;30790;52.030;7.110;2022-09-09T03:45:49;100056.44;;;23.00
41654;BMP280;30790;52.030;7.110;2022-09-09T03:48:15;100059.19;;;23.00
41654;BMP280;30790;52.030;7.110;2022-09-09T03:50:45;100061.69;;;23.02
41654;BMP280;30790;52.030;7.110;2022-09-09T03:53:10;100052.66;;;23.01
41654;BMP280;30790;52.030;7.110;2022-09-09T03:55:35;100053.72;;;23.00
41654;BMP280;30790;52.030;7.110;2022-09-09T03:58:01;100048.00;;;23.02
41654;BMP280;30790;52.030;7.110;2022-09-09T04:00:26;100032.13;;;22.94
41654;BMP280;30790;52.030;7.110;2022-09-09T04:02:51;100045.25;;;23.02
41654;BMP280;30790;52.030;7.110;2022-09-09T04:05:19;100044.44;;;23.01
41654;BMP280;30790;52.030;7.110;2022-09-09T04:07:44;100040.59;;;22.97
41654;BMP280;30790;52.030;7.110;2022-09-09T04:10:10;100040.84;;;23.01
41654;BMP280;30790;52.030;7.110;2022-09-09T04:12:35;100038.09;;;23.01
41654;BMP280;30790;52.030;7.110;2022-09-09T04:15:00;100038.13;;;22.96
41654;BMP280;30790;52.030;7.110;2022-09-09T04:17:27;100048.25;;;23.00
41654;BMP280;30790;52.030;7.110;2022-09-09T04:19:52;100040.88;;;22.96
41654;BMP280;30790;52.030;7.110;2022-09-09T04:22:17;100042.75;;;23.00
41654;BMP280;30790;52.030;7.110;2022-09-09T04:24:43;100042.50;;;22.97
41654;BMP280;30790;52.030;7.110;2022-09-09T04:27:08;100052.06;;;22.99
41654;BMP280;30790;52.030;7.110;2022-09-09T04:29:33;100049.34;;;22.99
41654;BMP280;30790;52.030;7.110;2022-09-09T04:31:58;100059.19;;;23.00
41654;BMP280;30790;52.030;7.110;2022-09-09T04:34:24;100040.63;;;22.87
41654;BMP280;30790;52.030;7.110;2022-09-09T04:36:50;100060.84;;;23.01
41654;BMP280;30790;52.030;7.110;2022-09-09T04:39:17;100057.56;;;22.99
41654;BMP280;30790;52.030;7.110;2022-09-09T04:41:42;100034.63;;;22.85
41654;BMP280;30790;52.030;7.110;2022-09-09T04:44:07;100072.63;;;23.02
41654;BMP280;30790;52.030;7.110;2022-09-09T04:46:33;100035.72;;;22.84
41654;BMP280;30790;52.030;7.110;2022-09-09T04:48:59;100045.00;;;22.88
41654;BMP280;30790;52.030;7.110;2022-09-09T04:51:25;100060.56;;;22.98
41654;BMP280;30790;52.030;7.110;2022-09-09T04:53:50;100064.66;;;23.00
41654;BMP280;30790;52.030;7.110;2022-09-09T04:56:17;100059.75;;;22.97
41654;BMP280;30790;52.030;7.110;2022-09-09T04:58:43;100069.88;;;23.02
41654;BMP280;30790;52.030;7.110;2022-09-09T05:01:11;100058.09;;;22.96
41654;BMP280;30790;52.030;7.110;2022-09-09T05:03:37;100064.66;;;23.00
41654;BMP280;30790;52.030;7.110;2022-09-09T05:06:23;100066.88;;;22.98
41654;BMP280;30790;52.030;7.110;2022-09-09T05:08:49;100065.75;;;22.99
41654;BMP280;30790;52.030;7.110;2022-09-09T05:11:21;100071.50;;;22.98
41654;BMP280;30790;52.030;7.110;2022-09-09T05:13:48;100066.59;;;22.95
41654;BMP280;30790;52.030;7.110;2022-09-09T05:16:15;100063.59;;;22.96
41654;BMP280;30790;52.030;7.110;2022-09-09T05:18:40;100060.84;;;22.96
41654;BMP280;30790;52.030;7.110;2022-09-09T05:21:07;100051.59;;;22.87
41654;BMP280;30790;52.030;7.110;2022-09-09T05:23:36;100051.59;;;22.87
41654;BMP280;30790;52.030;7.110;2022-09-09T05:26:02;100066.88;;;22.98
41654;BMP280;30790;52.030;7.110;2022-09-09T05:28:28;100064.13;;;22.98
41654;BMP280;30790;52.030;7.110;2022-09-09T05:30:58;100060.31;;;22.94
41654;BMP280;30790;52.030;7.110;2022-09-09T05:33:24;100049.94;;;22.91
41654;BMP280;30790;52.030;7.110;2022-09-09T05:38:27;100044.19;;;22.88
41654;BMP280;30790;52.030;7.110;2022-09-09T05:40:55;100063.03;;;22.99
41654;BMP280;30790;52.030;7.110;2022-09-09T05:43:22;100054.88;;;22.74
41654;BMP280;30790;52.030;7.110;2022-09-09T05:45:48;100044.53;;;22.56
41654;BMP280;30790;52.030;7.110;2022-09-09T05:48:14;100062.03;;;22.44
41654;BMP280;30790;52.030;7.110;2022-09-09T05:50:41;100062.59;;;22.31
41654;BMP280;30790;52.030;7.110;2022-09-09T05:53:07;100054.13;;;22.33
41654;BMP280;30790;52.030;7.110;2022-09-09T05:55:33;100057.97;;;22.22
41654;BMP280;30790;52.030;7.110;2022-09-09T05:57:58;100050.88;;;22.20
41654;BMP280;30790;52.030;7.110;2022-09-09T06:00:23;100052.78;;;22.20
41654;BMP280;30790;52.030;7.110;2022-09-09T06:02:52;100062.63;;;22.21
41654;BMP280;30790;52.030;7.110;2022-09-09T06:05:18;100070.81;;;22.21
41654;BMP280;30790;52.030;7.110;2022-09-09T06:07:43;100051.94;;;22.14
41654;BMP280;30790;52.030;7.110;2022-09-09T06:10:10;100034.16;;;21.97
41654;BMP280;30790;52.030;7.110;2022-09-09T06:12:35;100037.19;;;22.05
41654;BMP280;30790;52.030;7.110;2022-09-09T06:15:01;100063.69;;;22.15
41654;BMP280;30790;52.030;7.110;2022-09-09T06:17:26;100061.50;;;22.12
41654;BMP280;30790;52.030;7.110;2022-09-09T06:19:51;100054.91;;;22.03
41654;BMP280;30790;52.030;7.110;2022-09-09T06:22:17;100060.41;;;22.08
41654;BMP280;30790;52.030;7.110;2022-09-09T06:24:42;100056.59;;;22.04
41654;BMP280;30790;52.030;7.110;2022-09-09T06:27:08;100057.97;;;22.06
41654;BMP280;30790;52.030;7.110;2022-09-09T06:29:33;100059.06;;;22.05
41654;BMP280;30790;52.030;7.110;2022-09-09T06:31:58;100062.84;;;21.94
41654;BMP280;30790;52.030;7.110;2022-09-09T06:34:24;100054.06;;;21.77
41654;BMP280;30790;52.030;7.110;2022-09-09T06:36:49;100070.19;;;21.88
41654;BMP280;30790;52.030;7.110;2022-09-09T06:39:14;100069.09;;;21.84
41654;BMP280;30790;52.030;7.110;2022-09-09T06:41:40;100067.47;;;21.83
41654;BMP280;30790;52.030;7.110;2022-09-09T06:44:07;100065.28;;;21.80
41654;BMP280;30790;52.030;7.110;2022-09-09T06:46:32;100066.09;;;21.71
41654;BMP280;30790;52.030;7.110;2022-09-09T06:48:58;100071.56;;;21.66
41654;BMP280;30790;52.030;7.110;2022-09-09T06:51:35;100058.69;;;21.61
41654;BMP280;30790;52.030;7.110;2022-09-09T06:54:02;100072.66;;;21.65
41654;BMP280;30790;52.030;7.110;2022-09-09T06:56:35;100064.69;;;21.63
41654;BMP280;30790;52.030;7.110;2022-09-09T06:59:03;100073.41;;;21.55
41654;BMP280;30790;52.030;7.110;2022-09-09T07:01:32;100083.25;;;21.56
41654;BMP280;30790;52.030;7.110;2022-09-09T07:03:58;100075.88;;;21.62
41654;BMP280;30790;52.030;7.110;2022-09-09T07:06:32;100080.03;;;21.64
41654;BMP280;30790;52.030;7.110;2022-09-09T07:09:00;100081.06;;;21.63
41654;BMP280;30790;52.030;7.110;2022-09-09T07:11:27;100081.13;;;21.78
41654;BMP280;30790;52.030;7.110;2022-09-09T07:13:54;100083.84;;;21.88
41654;BMP280;30790;52.030;7.110;2022-09-09T07:16:21;100078.41;;;21.88
41654;BMP280;30790;52.030;7.110;2022-09-09T07:18:48;100078.44;;;21.94
41654;BMP280;30790;52.030;7.110;2022-09-09T07:21:14;100086.63;;;21.99
41654;BMP280;30790;52.030;7.110;2022-09-09T07:23:40;100087.72;;;22.03
41654;BMP280;30790;52.030;7.110;2022-09-09T07:26:14;100083.34;;;22.02
41654;BMP280;30790;52.030;7.110;2022-09-09T07:28:41;100084.75;;;22.04
41654;BMP280;30790;52.030;7.110;2022-09-09T07:31:08;100069.94;;;21.95
41654;BMP280;30790;52.030;7.110;2022-09-09T07:33:38;100075.16;;;22.02
41654;BMP280;30790;52.030;7.110;2022-09-09T07:36:08;100086.09;;;22.07
41654;BMP280;30790;52.030;7.110;2022-09-09T07:38:42;100089.38;;;22.04
41654;BMP280;30790;52.030;7.110;2022-09-09T07:41:10;100097.88;;;22.07
41654;BMP280;30790;52.030;7.110;2022-09-09T07:43:38;100093.75;;;22.05
41654;BMP280;30790;52.030;7.110;2022-09-09T07:46:05;100088.53;;;22.03
41654;BMP280;30790;52.030;7.110;2022-09-09T07:48:31;100088.00;;;22.01
41654;BMP280;30790;52.030;7.110;2022-09-09T07:51:11;100084.44;;;22.01
41654;BMP280;30790;52.030;7.110;2022-09-09T07:53:38;100098.94;;;22.06
41654;BMP280;30790;52.030;7.110;2022-09-09T07:56:09;100086.38;;;22.05
41654;BMP280;30790;52.030;7.110;2022-09-09T07:58:35;100091.84;;;22.10
41654;BMP280;30790;52.030;7.110;2022-09-09T08:01:07;100092.94;;;22.09
41654;BMP280;30790;52.030;7.110;2022-09-09T08:03:32;100085.84;;;22.08
41654;BMP280;30790;52.030;7.110;2022-09-09T08:06:07;100093.75;;;22.15
41654;BMP280;30790;52.030;7.110;2022-09-09T08:08:33;100090.75;;;22.16
41654;BMP280;30790;52.030;7.110;2022-09-09T08:11:11;100085.00;;;22.18
41654;BMP280;30790;52.030;7.110;2022-09-09T08:13:37;100084.75;;;22.14
41654;BMP280;30790;52.030;7.110;2022-09-09T08:16:05;100097.03;;;22.07
41654;BMP280;30790;52.030;7.110;2022-09-09T08:18:31;100092.66;;;22.11
41654;BMP280;30790;52.030;7.110;2022-09-09T08:20:56;100068.59;;;22.03
41654;BMP280;30790;52.030;7.110;2022-09-09T08:23:21;100090.75;;;22.11
41654;BMP280;30790;52.030;7.110;2022-09-09T08:25:46;100086.66;;;22.09
41654;BMP280;30790;52.030;7.110;2022-09-09T08:28:13;100089.13;;;22.10
41654;BMP280;30790;52.030;7.110;2022-09-09T08:30:39;100085.00;;;22.08
41654;BMP280;30790;52.030;7.110;2022-09-09T08:33:04;100094.03;;;22.13
41654;BMP280;30790;52.030;7.110;2022-09-09T08:35:30;100101.13;;;22.14
41654;BMP280;30790;52.030;7.110;2022-09-09T08:37:57;100099.78;;;22.07
41654;BMP280;30790;52.030;7.110;2022-09-09T08:40:29;100089.66;;;22.12
41654;BMP280;30790;52.030;7.110;2022-09-09T08:42:58;100103.88;;;22.14
41654;BMP280;30790;52.030;7.110;2022-09-09T08:45:33;100100.31;;;22.14
41654;BMP280;30790;52.030;7.110;2022-09-09T08:50:38;100096.53;;;22.20
41654;BMP280;30790;52.030;7.110;2022-09-09T08:53:16;100108.53;;;22.29
41654;BMP280;30790;52.030;7.110;2022-09-09T08:55:48;100102.53;;;22.32
41654;BMP280;30790;52.030;7.110;2022-09-09T08:58:46;100103.59;;;22.36
41654;BMP280;30790;52.030;7.110;2022-09-09T09:01:41;100109.34;;;22.40
41654;BMP280;30790;52.030;7.110;2022-09-09T09:09:47;100111.81;;;22.46
41654;BMP280;30790;52.030;7.110;2022-09-09T09:12:21;100110.19;;;22.50
41654;BMP280;30790;52.030;7.110;2022-09-09T09:14:48;100109.91;;;22.52
41654;BMP280;30790;52.030;7.110;2022-09-09T09:17:17;100109.63;;;22.54
41654;BMP280;30790;52.030;7.110;2022-09-09T09:19:44;100106.34;;;22.57
41654;BMP280;30790;52.030;7.110;2022-09-09T09:22:51;100109.63;;;22.59
41654;BMP280;30790;52.030;7.110;2022-09-09T09:25:38;100104.97;;;22.54
41654;BMP280;30790;52.030;7.110;2022-09-09T09:28:15;100108.53;;;22.60
41654;BMP280;30790;52.030;7.110;2022-09-09T09:31:09;100109.06;;;22.62
41654;BMP280;30790;52.030;7.110;2022-09-09T09:36:11;100101.44;;;22.48
41654;BMP280;30790;52.030;7.110;2022-09-09T09:38:58;100110.97;;;22.41
41654;BMP280;30790;52.030;7.110;2022-09-09T09:41:32;100111.25;;;22.39
41654;BMP280;30790;52.030;7.110;2022-09-09T09:43:59;100112.38;;;22.33
41654;BMP280;30790;52.030;7.110;2022-09-09T09:46:25;100112.91;;;22.35
41654;BMP280;30790;52.030;7.110;2022-09-09T09:49:03;100123.84;;;22.35
41654;BMP280;30790;52.030;7.110;2022-09-09T09:51:31;100113.19;;;22.34
41654;BMP280;30790;52.030;7.110;2022-09-09T09:54:13;100131.22;;;22.40
41654;BMP280;30790;52.030;7.110;2022-09-09T09:56:44;100114.81;;;22.40
41654;BMP280;30790;52.030;7.110;2022-09-09T09:59:42;100122.50;;;22.48
41654;BMP280;30790;52.030;7.110;2022-09-09T10:02:15;100109.34;;;22.50
41654;BMP280;30790;52.030;7.110;2022-09-09T10:04:41;100115.63;;;22.61
41654;BMP280;30790;52.030;7.110;2022-09-09T10:07:17;100117.25;;;22.72
41654;BMP280;30790;52.030;7.110;2022-09-09T10:09:42;100106.84;;;22.69
41654;BMP280;30790;52.030;7.110;2022-09-09T10:17:40;100110.41;;;22.90
41654;BMP280;30790;52.030;7.110;2022-09-09T10:22:35;100122.75;;;22.82
41654;BMP280;30790;52.030;7.110;2022-09-09T10:25:28;100119.47;;;22.75
41654;BMP280;30790;52.030;7.110;2022-09-09T10:36:24;100121.09;;;22.61
41654;BMP280;30790;52.030;7.110;2022-09-09T10:42:14;100121.09;;;22.66
41654;BMP280;30790;52.030;7.110;2022-09-09T10:50:12;100116.72;;;22.65
41654;BMP280;30790;52.030;7.110;2022-09-09T10:52:58;100106.31;;;22.62
41654;BMP280;30790;52.030;7.110;2022-09-09T10:55:35;100104.16;;;22.59
41654;BMP280;30790;52.030;7.110;2022-09-09T10:58:03;100101.13;;;22.60
41654;BMP280;30790;52.030;7.110;2022-09-09T11:00:38;100103.06;;;22.60
41654;BMP280;30790;52.030;7.110;2022-09-09T11:03:05;100097.56;;;22.60
41654;BMP280;30790;52.030;7.110;2022-09-09T11:05:43;100108.25;;;22.61
41654;BMP280;30790;52.030;7.110;2022-09-09T11:08:14;100106.31;;;22.62
41654;BMP280;30790;52.030;7.110;2022-09-09T11:10:47;100102.50;;;22.63
41654;BMP280;30790;52.030;7.110;2022-09-09T11:13:23;100108.78;;;22.63
41654;BMP280;30790;52.030;7.110;2022-09-09T11:15:54;100096.50;;;22.56
41654;BMP280;30790;52.030;7.110;2022-09-09T11:18:23;100099.22;;;22.61
41654;BMP280;30790;52.030;7.110;2022-09-09T11:20:51;100087.19;;;22.62
41654;BMP280;30790;52.030;7.110;2022-09-09T11:23:25;100098.66;;;22.64
41654;BMP280;30790;52.030;7.110;2022-09-09T11:25:55;100095.63;;;22.70
41654;BMP280;30790;52.030;7.110;2022-09-09T11:35:11;100090.44;;;22.79
41654;BMP280;30790;52.030;7.110;2022-09-09T11:37:31;100091.00;;;22.76
41654;BMP280;30790;52.030;7.110;2022-09-09T11:40:24;100086.88;;;22.78
41654;BMP280;30790;52.030;7.110;2022-09-09T11:45:31;100096.50;;;22.81
41654;BMP280;30790;52.030;7.110;2022-09-09T11:48:00;100094.28;;;22.78
41654;BMP280;30790;52.030;7.110;2022-09-09T11:53:18;100089.91;;;22.77
41654;BMP280;30790;52.030;7.110;2022-09-09T11:55:59;100098.13;;;22.82
41654;BMP280;30790;52.030;7.110;2022-09-09T11:58:27;100111.25;;;22.85
41654;BMP280;30790;52.030;7.110;2022-09-09T12:00:57;100098.13;;;22.82
41654;BMP280;30790;52.030;7.110;2022-09-09T12:03:40;100104.13;;;22.84
41654;BMP280;30790;52.030;7.110;2022-09-09T12:06:30;100106.34;;;22.82
41654;BMP280;30790;52.030;7.110;2022-09-09T12:11:45;100099.75;;;22.78
41654;BMP280;30790;52.030;7.110;2022-09-09T12:14:36;100099.22;;;22.81
41654;BMP280;30790;52.030;7.110;2022-09-09T12:19:40;100099.22;;;22.81
41654;BMP280;30790;52.030;7.110;2022-09-09T12:24:57;100104.13;;;22.84
41654;BMP280;30790;52.030;7.110;2022-09-09T12:28:04;100098.38;;;22.86
41654;BMP280;30790;52.030;7.110;2022-09-09T12:30:37;100095.91;;;22.89
41654;BMP280;30790;52.030;7.110;2022-09-09T12:33:13;100102.47;;;22.88
41654;BMP280;30790;52.030;7.110;2022-09-09T12:35:38;100094.81;;;22.85
41654;BMP280;30790;52.030;7.110;2022-09-09T12:38:05;100094.81;;;22.85
41654;BMP280;30790;52.030;7.110;2022-09-09T12:40:34;100099.75;;;22.88
41654;BMP280;30790;52.030;7.110;2022-09-09T12:43:22;100090.72;;;22.83
41654;BMP280;30790;52.030;7.110;2022-09-09T12:45:48;100099.75;;;22.88
41654;BMP280;30790;52.030;7.110;2022-09-09T12:48:17;100098.09;;;22.87
41654;BMP280;30790;52.030;7.110;2022-09-09T12:50:51;100098.09;;;22.92
41654;BMP280;30790;52.030;7.110;2022-09-09T12:53:26;100087.41;;;22.91
41654;BMP280;30790;52.030;7.110;2022-09-09T12:56:08;100088.25;;;22.91
41654;BMP280;30790;52.030;7.110;2022-09-09T12:58:36;100088.25;;;22.91
41654;BMP280;30790;52.030;7.110;2022-09-09T13:01:05;100077.59;;;22.85
41654;BMP280;30790;52.030;7.110;2022-09-09T13:03:32;100090.97;;;22.91
41654;BMP280;30790;52.030;7.110;2022-09-09T13:06:09;100082.75;;;22.91
41654;BMP280;30790;52.030;7.110;2022-09-09T13:08:36;100091.50;;;22.93
41654;BMP280;30790;52.030;7.110;2022-09-09T13:11:04;100103.28;;;22.94
41654;BMP280;30790;52.030;7.110;2022-09-09T13:13:38;100088.25;;;22.91
41654;BMP280;30790;52.030;7.110;2022-09-09T13:16:06;100097.00;;;22.93
41654;BMP280;30790;52.030;7.110;2022-09-09T13:18:35;100090.16;;;22.91
41654;BMP280;30790;52.030;7.110;2022-09-09T13:21:01;100084.41;;;22.92
41654;BMP280;30790;52.030;7.110;2022-09-09T13:23:29;100074.53;;;22.96
41654;BMP280;30790;52.030;7.110;2022-09-09T13:26:04;100071.53;;;22.93
41654;BMP280;30790;52.030;7.110;2022-09-09T13:28:31;100076.44;;;22.96
41654;BMP280;30790;52.030;7.110;2022-09-09T13:30:57;100073.44;;;22.97
41654;BMP280;30790;52.030;7.110;2022-09-09T13:33:34;100065.78;;;22.94
41654;BMP280;30790;52.030;7.110;2022-09-09T13:36:08;100070.69;;;22.97
41654;BMP280;30790;52.030;7.110;2022-09-09T13:39:01;100058.66;;;22.93
41654;BMP280;30790;52.030;7.110;2022-09-09T13:41:32;100075.34;;;22.97
41654;BMP280;30790;52.030;7.110;2022-09-09T13:43:58;100115.59;;;22.96
41654;BMP280;30790;52.030;7.110;2022-09-09T13:46:34;100104.09;;;22.94
41654;BMP280;30790;52.030;7.110;2022-09-09T13:49:22;100112.56;;;22.98
41654;BMP280;30790;52.030;7.110;2022-09-09T13:51:49;100121.06;;;22.96
41654;BMP280;30790;52.030;7.110;2022-09-09T13:54:17;100118.31;;;22.96
41654;BMP280;30790;52.030;7.110;2022-09-09T13:56:43;100116.16;;;22.93
41654;BMP280;30790;52.030;7.110;2022-09-09T13:59:14;100119.97;;;22.92
41654;BMP280;30790;52.030;7.110;2022-09-09T14:01:40;100109.88;;;22.88
41654;BMP280;30790;52.030;7.110;2022-09-09T14:04:05;100109.88;;;22.88
41654;BMP280;30790;52.030;7.110;2022-09-09T14:06:31;100109.88;;;22.88
41654;BMP280;30790;52.030;7.110;2022-09-09T14:08:57;100112.34;;;22.89
41654;BMP280;30790;52.030;7.110;2022-09-09T14:11:22;100081.69;;;22.72
41654;BMP280;30790;52.030;7.110;2022-09-09T14:13:48;100089.63;;;22.84
41654;BMP280;30790;52.030;7.110;2022-09-09T14:16:16;100100.84;;;22.87
41654;BMP280;30790;52.030;7.110;2022-09-09T14:18:42;100107.97;;;22.83
41654;BMP280;30790;52.030;7.110;2022-09-09T14:21:09;100101.94;;;22.76
41654;BMP280;30790;52.030;7.110;2022-09-09T14:23:34;100096.19;;;22.72
41654;BMP280;30790;52.030;7.110;2022-09-09T14:25:59;100104.66;;;22.71
41654;BMP280;30790;52.030;7.110;2022-09-09T14:28:25;100098.94;;;22.67
41654;BMP280;30790;52.030;7.110;2022-09-09T14:30:50;100104.66;;;22.71
41654;BMP280;30790;52.030;7.110;2022-09-09T14:33:16;100096.72;;;22.69
41654;BMP280;30790;52.030;7.110;2022-09-09T14:35:42;100095.38;;;22.67
41654;BMP280;30790;52.030;7.110;2022-09-09T14:38:08;100101.41;;;22.74
41654;BMP280;30790;52.030;7.110;2022-09-09T14:40:35;100102.47;;;22.73
41654;BMP280;30790;52.030;7.110;2022-09-09T14:43:01;100100.56;;;22.68
41654;BMP280;30790;52.030;7.110;2022-09-09T14:45:27;100100.56;;;22.68
41654;BMP280;30790;52.030;7.110;2022-09-09T14:47:53;100094.28;;;22.68
41654;BMP280;30790;52.030;7.110;2022-09-09T14:50:19;100093.19;;;22.69
41654;BMP280;30790;52.030;7.110;2022-09-09T14:52:46;100095.34;;;22.72
41654;BMP280;30790;52.030;7.110;2022-09-09T14:55:12;100086.06;;;22.68
41654;BMP280;30790;52.030;7.110;2022-09-09T14:57:37;100087.97;;;22.67
41654;BMP280;30790;52.030;7.110;2022-09-09T15:00:05;100084.16;;;22.68
41654;BMP280;30790;52.030;7.110;2022-09-09T15:02:31;100080.88;;;22.66
41654;BMP280;30790;52.030;7.110;2022-09-09T15:04:56;100085.78;;;22.69
41654;BMP280;30790;52.030;7.110;2022-09-09T15:07:25;100085.53;;;22.66
41654;BMP280;30790;52.030;7.110;2022-09-09T15:09:50;100091.00;;;22.66
41654;BMP280;30790;52.030;7.110;2022-09-09T15:12:17;100086.63;;;22.65
41654;BMP280;30790;52.030;7.110;2022-09-09T15:14:44;100084.97;;;22.64
41654;BMP280;30790;52.030;7.110;2022-09-09T15:17:09;100077.59;;;22.64
41654;BMP280;30790;52.030;7.110;2022-09-09T15:19:35;100085.25;;;22.62
41654;BMP280;30790;52.030;7.110;2022-09-09T15:22:02;100082.81;;;22.61
41654;BMP280;30790;52.030;7.110;2022-09-09T15:24:27;100073.50;;;22.62
41654;BMP280;30790;52.030;7.110;2022-09-09T15:26:52;100078.97;;;22.62
41654;BMP280;30790;52.030;7.110;2022-09-09T15:29:18;100063.41;;;22.57
41654;BMP280;30790;52.030;7.110;2022-09-09T15:31:44;100053.84;;;22.49
41654;BMP280;30790;52.030;7.110;2022-09-09T15:34:09;100051.66;;;22.51
41654;BMP280;30790;52.030;7.110;2022-09-09T15:36:44;100063.38;;;22.62